עמוד ראשי
METAR-TAF:

METAR-TAF

שדות תעופה :

דרי, צפון אירלנד

קו רוחב: 55-03N, קו אורך: 007-09W, גובה: 9מטר

תצפית מזג אוויר נוכחית

הדו"ח נערך לפני 36דקות, בשעה 11:50 UTC
רוח 8קשר מכיוון צפון-מזרח
טמפרטורת 16 צלסיוס
לחות 72%
לחץ 1020 hPa
ראות 10 קילומטר או יותר
מעט עננים בגובה 1600רגל
עננים בינוניים בגובה 2200רגל

METAR: EGAE 251150Z 04008KT 9999 FEW016 BKN022 16/11 Q1020

זמן: 13:26 (12:26 UTC)

תחזית

הדו"ח נערך לפני 1 שעות ו 16דקות, בשעה 11:10 UTC
תחזית בתוקף מ 25 ב 12 UTC עד 25 ב 21 UTC
רוח 9קשר מכיוון צפון/צפון-מזרח
ראות 10 קילומטר או יותר
עננים פזורים בגובה 2000רגל
הסתברות 30% :
זמנית מ -
25 ב 12 UTC עד 25 ב 14 UTC
עננים בינוניים בגובה 800רגל

TAF: EGAE 251110Z 2512/2521 03009KT 9999 SCT020 PROB30 TEMPO 2512/2514 BKN008

תצפיות ותחזיות מזג אוויר לגבי יותר מ- 4,000 שדות תעופה ברחבי העולם. דוחות METAR ו- TAF.

התחנות הזמינות מסומנות בנקודות צהובות ואדומות על גבי המפה.

העבר את העכבר לנקודה הצבעונית על מנת לראות את שם התחנה.

לאחר מכן, לחץ כדי לראות את תוכן ואת תחזיות מזג האוויר.

כדי לשנות את המפה: לחץ על הכפתורים הירוקים עם הפלוס השחור כדי להתקרב; על הכפתור הירוק עם המקף כדי להתרחק; או בחיצים הירוקים למפות סמוכות.


METAR-TAF: